Time;durP1;ratioP1;P1;durP2;ratioP2;P2;SDS_P1;SDS_P2;PMS_P1;PMS_P2;Temp;Humidity;BMP_temperature;BMP_pressure;BME280_temperature;BME280_humidity;BME280_pressure;Samples;Min_cycle;Max_cycle;Signal;HPM_P1;HPM_P2
2021/04/14 00:00:49;;;;;;;16.90;11.60;;;;;;;4.11;68.07;101076.08;104801;1111;78840;-59
2021/04/14 00:02:56;;;;;;;23.10;16.40;;;;;;;4.12;68.11;101071.58;104759;1110;78160;-59
2021/04/14 00:05:09;;;;;;;17.60;13.10;;;;;;;4.15;67.99;101073.97;104754;1109;78620;-66
2021/04/14 00:07:16;;;;;;;17.40;12.00;;;;;;;4.14;68.27;101085.66;104722;1110;77187;-66
2021/04/14 00:09:24;;;;;;;19.80;14.20;;;;;;;4.14;68.28;101077.64;104890;1103;78796;-65
2021/04/14 00:11:29;;;;;;;17.20;10.80;;;;;;;4.15;68.20;101076.64;104745;1110;77227;-66
2021/04/14 00:13:42;;;;;;;21.30;14.10;;;;;;;4.14;68.33;101077.64;104737;1110;78149;-65
2021/04/14 00:15:53;;;;;;;18.80;12.40;;;;;;;4.16;68.29;101083.69;104805;1110;77540;-65
2021/04/14 00:17:58;;;;;;;21.90;15.50;;;;;;;4.13;68.15;101075.93;104755;1110;76901;-66
2021/04/14 00:20:04;;;;;;;22.00;15.50;;;;;;;4.13;68.01;101083.95;104780;1110;77679;-65
2021/04/14 00:22:09;;;;;;;17.00;11.70;;;;;;;4.09;68.37;101080.68;104776;1110;78265;-65
2021/04/14 00:24:16;;;;;;;19.10;12.80;;;;;;;4.05;68.24;101075.74;104774;1103;76727;-65
2021/04/14 00:26:25;;;;;;;16.50;8.90;;;;;;;4.05;68.29;101081.09;104776;1110;78955;-66
2021/04/14 00:28:39;;;;;;;16.00;10.10;;;;;;;4.04;68.25;101088.25;104802;1110;79299;-66
2021/04/14 00:30:47;;;;;;;20.20;13.50;;;;;;;4.03;68.24;101081.23;104745;1110;79591;-68
2021/04/14 00:32:55;;;;;;;21.20;12.30;;;;;;;4.04;68.39;101082.05;104783;1110;77210;-68
2021/04/14 00:35:00;;;;;;;13.50;9.20;;;;;;;4.00;68.40;101081.49;104762;1110;78981;-60
2021/04/14 00:37:08;;;;;;;17.10;11.60;;;;;;;4.00;68.40;101078.81;104768;1110;77215;-60
2021/04/14 00:39:20;;;;;;;22.50;12.20;;;;;;;3.98;68.47;101082.60;104737;1110;78395;-60
2021/04/14 00:41:28;;;;;;;21.60;12.70;;;;;;;3.97;68.55;101083.56;104723;1110;78660;-60
2021/04/14 00:43:36;;;;;;;20.60;10.40;;;;;;;3.96;68.51;101088.06;104738;1110;78328;-63
2021/04/14 00:45:42;;;;;;;18.90;10.30;;;;;;;3.93;68.51;101085.64;104717;1109;78268;-67
2021/04/14 00:47:50;;;;;;;19.10;10.50;;;;;;;3.95;68.78;101088.20;104839;1110;79409;-67
2021/04/14 00:49:55;;;;;;;17.70;9.40;;;;;;;3.97;68.66;101088.91;104715;1110;77684;-66
2021/04/14 00:52:00;;;;;;;17.10;10.40;;;;;;;3.98;68.73;101087.95;104732;1110;76916;-66
2021/04/14 00:54:06;;;;;;;14.40;9.80;;;;;;;3.95;68.84;101082.86;104762;1110;77103;-67
2021/04/14 00:56:11;;;;;;;16.30;10.50;;;;;;;3.95;68.92;101083.71;104764;1110;78287;-67
2021/04/14 00:58:17;;;;;;;15.20;9.20;;;;;;;3.92;69.02;101081.30;104828;1110;78704;-67
2021/04/14 01:00:32;;;;;;;18.40;12.30;;;;;;;3.89;68.96;101078.88;104775;1110;78268;-67
2021/04/14 01:02:38;;;;;;;13.70;9.00;;;;;;;3.84;69.04;101069.56;104825;1111;78530;-66
2021/04/14 01:04:44;;;;;;;17.80;10.50;;;;;;;3.86;69.07;101070.27;104798;1111;77067;-61
2021/04/14 01:06:49;;;;;;;19.30;12.20;;;;;;;3.85;69.12;101064.06;104774;1110;79749;-61
2021/04/14 01:08:55;;;;;;;24.20;13.90;;;;;;;3.87;69.21;101055.94;104745;1110;78238;-61
2021/04/14 01:11:05;;;;;;;16.60;10.00;;;;;;;3.90;69.17;101066.38;104730;1111;77588;-60
2021/04/14 01:13:11;;;;;;;18.40;11.10;;;;;;;3.88;69.24;101066.48;104780;1111;77236;-61
2021/04/14 01:15:29;;;;;;;20.60;11.40;;;;;;;3.87;69.46;101075.50;104763;1111;77934;-67
2021/04/14 01:17:34;;;;;;;16.10;9.70;;;;;;;3.88;69.25;101066.48;104764;1111;78899;-67
2021/04/14 01:19:42;;;;;;;13.50;8.40;;;;;;;3.89;69.18;101068.19;104775;1111;77221;-60
2021/04/14 01:21:47;;;;;;;17.90;11.70;;;;;;;3.89;69.20;101072.69;104769;1110;78672;-60
2021/04/14 01:23:55;;;;;;;18.90;12.50;;;;;;;3.89;69.24;101061.99;104771;1111;78009;-61
2021/04/14 01:26:01;;;;;;;15.10;8.40;;;;;;;3.88;69.28;101070.97;104778;1110;78545;-60
2021/04/14 01:28:09;;;;;;;19.10;12.00;;;;;;;3.86;69.12;101057.76;104782;1110;77545;-60
2021/04/14 01:30:22;;;;;;;11.20;7.10;;;;;;;3.89;69.43;101059.31;104793;1109;78348;-60
2021/04/14 01:32:30;;;;;;;12.80;7.60;;;;;;;3.91;69.19;101068.90;104759;1111;77256;-60
2021/04/14 01:34:35;;;;;;;9.80;6.40;;;;;;;3.89;69.35;101057.50;104792;1111;78120;-60
2021/04/14 01:36:40;;;;;;;11.90;7.10;;;;;;;3.90;69.12;101064.52;104749;1111;77776;-61
2021/04/14 01:38:48;;;;;;;12.70;7.40;;;;;;;3.89;69.20;101061.99;104770;1110;78096;-66
2021/04/14 01:40:53;;;;;;;9.20;5.80;;;;;;;3.86;69.16;101056.91;104769;1111;80141;-66
2021/04/14 01:42:58;;;;;;;11.50;6.70;;;;;;;3.85;69.29;101056.05;104779;1111;78752;-66
2021/04/14 01:45:05;;;;;;;11.20;7.70;;;;;;;3.85;69.30;101061.39;104747;1111;78589;-60
2021/04/14 01:47:10;;;;;;;12.10;8.30;;;;;;;3.85;69.22;101060.55;104902;1103;77492;-61
2021/04/14 01:49:15;;;;;;;13.70;7.80;;;;;;;3.88;69.28;101061.14;104764;1111;78396;-66
2021/04/14 01:51:21;;;;;;;15.20;8.10;;;;;;;3.86;69.34;101052.41;104738;1103;78028;-67
2021/04/14 01:53:26;;;;;;;16.00;8.70;;;;;;;3.87;69.32;101051.45;104770;1111;78295;-66
2021/04/14 01:55:32;;;;;;;13.50;6.50;;;;;;;3.84;69.37;101050.85;104769;1111;78560;-66
2021/04/14 01:57:37;;;;;;;9.00;6.20;;;;;;;3.85;69.27;101057.88;104769;1111;78720;-66
2021/04/14 01:59:42;;;;;;;11.50;6.40;;;;;;;3.82;69.20;101056.30;104754;1111;78426;-65
2021/04/14 02:01:47;;;;;;;11.60;6.80;;;;;;;3.83;69.24;101043.80;104774;1111;79267;-64
2021/04/14 02:03:52;;;;;;;13.40;5.90;;;;;;;3.80;69.01;101049.40;105469;1108;79454;-65
2021/04/14 02:05:57;;;;;;;11.60;6.20;;;;;;;3.80;69.09;101050.25;104750;1110;77088;-66
2021/04/14 02:08:03;;;;;;;11.80;6.80;;;;;;;3.80;69.21;101052.08;104747;1110;78136;-65
2021/04/14 02:10:13;;;;;;;10.80;5.50;;;;;;;3.77;69.16;101053.18;105454;1108;78062;-66
2021/04/14 02:12:18;;;;;;;9.90;5.20;;;;;;;3.81;69.04;101046.62;105452;1108;78501;-65
2021/04/14 02:14:23;;;;;;;6.80;4.40;;;;;;;3.81;68.99;101038.59;105448;1108;78612;-66
2021/04/14 02:16:28;;;;;;;12.70;5.50;;;;;;;3.84;69.10;101050.85;105462;1108;78686;-67
2021/04/14 02:18:33;;;;;;;8.80;4.20;;;;;;;3.82;68.99;101042.95;105448;1108;77029;-63
2021/04/14 02:20:39;;;;;;;9.80;4.00;;;;;;;3.79;69.06;101043.20;105434;1108;77110;-67
2021/04/14 02:22:44;;;;;;;6.90;3.70;;;;;;;3.76;68.72;101040.82;105421;1103;77066;-68
2021/04/14 02:24:49;;;;;;;7.80;3.50;;;;;;;3.78;68.96;101038.00;105462;1107;77512;-60
2021/04/14 02:26:57;;;;;;;7.80;4.00;;;;;;;3.78;68.76;101044.20;105407;1108;78899;-60
2021/04/14 02:29:03;;;;;;;9.90;3.80;;;;;;;3.74;68.86;101052.59;105466;1107;78228;-60
2021/04/14 02:31:10;;;;;;;7.70;4.40;;;;;;;3.73;68.86;101033.06;105468;1107;78468;-60
2021/04/14 02:33:15;;;;;;;12.40;4.50;;;;;;;3.75;68.88;101039.11;105439;1108;77726;-60
2021/04/14 02:35:20;;;;;;;10.30;4.10;;;;;;;3.71;68.99;101032.32;105453;1108;77026;-60
2021/04/14 02:37:25;;;;;;;7.00;3.70;;;;;;;3.73;68.71;101041.08;105439;1108;78467;-60
2021/04/14 02:39:33;;;;;;;9.70;3.80;;;;;;;3.73;68.96;101041.08;105462;1107;79065;-59
2021/04/14 02:41:39;;;;;;;9.30;4.20;;;;;;;3.72;68.74;101035.84;105470;1108;78815;-60
2021/04/14 02:43:47;;;;;;;9.60;3.30;;;;;;;3.71;69.02;101042.19;105455;1108;78220;-60
2021/04/14 02:45:52;;;;;;;9.60;3.80;;;;;;;3.70;68.84;101041.33;105413;1102;78476;-60
2021/04/14 02:47:57;;;;;;;9.00;3.70;;;;;;;3.66;69.02;101039.88;105435;1108;78412;-59
2021/04/14 02:50:03;;;;;;;12.30;4.10;;;;;;;3.66;68.76;101037.21;105434;1108;78177;-67
2021/04/14 02:52:09;;;;;;;8.50;3.80;;;;;;;3.64;69.16;101036.50;105460;1107;78558;-67
2021/04/14 02:54:14;;;;;;;9.90;4.80;;;;;;;3.65;68.84;101038.20;105491;1108;77613;-69
2021/04/14 02:56:22;;;;;;;5.00;3.30;;;;;;;3.66;69.05;101033.69;105462;1107;78114;-68
2021/04/14 02:58:28;;;;;;;8.30;3.60;;;;;;;3.68;68.87;101040.59;105412;1108;78098;-68
2021/04/14 03:00:34;;;;;;;7.50;3.80;;;;;;;3.70;68.96;101033.31;105433;1108;77964;-60
2021/04/14 03:02:39;;;;;;;8.80;4.00;;;;;;;3.70;69.14;101033.31;105428;1108;77499;-59
2021/04/14 03:04:44;;;;;;;9.30;3.90;;;;;;;3.69;68.98;101036.10;105489;1108;78694;-68
2021/04/14 03:06:49;;;;;;;5.90;2.90;;;;;;;3.64;69.25;101036.50;105439;1108;78605;-68
2021/04/14 03:08:54;;;;;;;9.10;3.80;;;;;;;3.63;68.86;101028.59;105437;1107;77630;-59
2021/04/14 03:10:59;;;;;;;12.60;4.40;;;;;;;3.64;68.94;101033.83;105434;1107;78176;-60
2021/04/14 03:13:06;;;;;;;9.60;4.40;;;;;;;3.65;68.64;101027.52;105454;1107;78385;-60
2021/04/14 03:15:16;;;;;;;19.00;11.00;;;;;;;3.64;68.91;101028.48;105497;1101;77036;-69
2021/04/14 03:17:21;;;;;;;60.60;28.10;;;;;;;3.62;68.96;101024.25;105436;1108;77329;-68
2021/04/14 03:19:26;;;;;;;26.60;10.70;;;;;;;3.65;68.92;101027.52;105453;1108;78370;-60
2021/04/14 03:21:31;;;;;;;31.80;15.20;;;;;;;3.66;69.23;101029.20;105429;1108;78514;-59
2021/04/14 03:23:36;;;;;;;17.90;10.40;;;;;;;3.65;69.03;101021.33;105469;1107;77616;-67
2021/04/14 03:25:43;;;;;;;19.10;9.60;;;;;;;3.65;69.17;101024.85;105427;1108;77015;-69
2021/04/14 03:27:48;;;;;;;24.20;12.80;;;;;;;3.62;69.16;101017.09;105427;1108;78214;-69
2021/04/14 03:29:56;;;;;;;16.60;8.70;;;;;;;3.64;68.94;101023.14;105449;1108;78912;-68
2021/04/14 03:32:01;;;;;;;15.90;10.70;;;;;;;3.63;69.14;101020.58;105410;1108;78498;-68
2021/04/14 03:34:06;;;;;;;30.90;18.30;;;;;;;3.58;69.35;101021.84;105474;1107;78908;-68
2021/04/14 03:36:12;;;;;;;16.80;9.70;;;;;;;3.55;68.98;101021.23;105400;1108;78742;-68
2021/04/14 03:38:16;;;;;;;24.50;14.20;;;;;;;3.56;69.07;101022.95;105458;1108;77201;-68
2021/04/14 03:40:23;;;;;;;15.40;8.10;;;;;;;3.59;69.18;101028.03;105462;1102;77380;-59
2021/04/14 03:42:28;;;;;;;14.90;9.60;;;;;;;3.58;68.96;101011.16;105419;1107;78859;-60
2021/04/14 03:44:35;;;;;;;17.10;8.70;;;;;;;3.54;69.18;101017.72;105420;1107;76893;-60
2021/04/14 03:46:43;;;;;;;12.50;7.90;;;;;;;3.55;69.14;101018.56;105458;1108;79617;-59
2021/04/14 03:48:48;;;;;;;11.90;8.10;;;;;;;3.55;69.41;101016.75;105429;1108;77861;-60
2021/04/14 03:50:55;;;;;;;14.40;8.70;;;;;;;3.53;69.19;101017.86;105396;1108;78933;-59
2021/04/14 03:53:22;;;;;;;12.60;6.90;;;;;;;3.52;69.53;101022.34;104859;1103;78191;-59
2021/04/14 03:55:27;;;;;;;16.90;10.40;;;;;;;3.46;69.46;101020.19;104737;1109;78428;-68
2021/04/14 03:57:35;;;;;;;14.10;6.50;;;;;;;3.47;69.51;101021.04;105472;1108;78693;-68
2021/04/14 03:59:40;;;;;;;13.60;6.90;;;;;;;3.46;69.38;101022.86;105433;1108;78303;-59
2021/04/14 04:01:46;;;;;;;20.20;10.30;;;;;;;3.49;69.71;101027.09;105468;1108;78101;-60
2021/04/14 04:03:53;;;;;;;20.60;10.00;;;;;;;3.56;69.69;101028.28;105447;1108;78115;-68
2021/04/14 04:05:59;;;;;;;17.20;7.80;;;;;;;3.55;69.59;101031.92;105418;1108;78441;-68
2021/04/14 04:08:07;;;;;;;23.60;11.60;;;;;;;3.58;69.46;101026.33;105436;1108;77803;-67
2021/04/14 04:10:13;;;;;;;15.50;8.10;;;;;;;3.59;69.66;101025.36;104750;1110;78716;-67
2021/04/14 04:12:21;;;;;;;14.60;5.60;;;;;;;3.57;69.75;101036.16;105493;1102;78302;-68
2021/04/14 04:14:31;;;;;;;19.00;9.20;;;;;;;3.58;69.46;101031.67;105451;1108;76842;-60
2021/04/14 04:16:39;;;;;;;21.50;10.90;;;;;;;3.56;69.60;101044.31;105455;1108;77692;-59
2021/04/14 04:18:45;;;;;;;34.90;19.30;;;;;;;3.58;69.31;101047.70;104817;1103;78037;-59
2021/04/14 04:20:50;;;;;;;32.70;16.00;;;;;;;3.61;69.34;101042.09;105438;1108;79558;-59
2021/04/14 04:22:55;;;;;;;29.80;14.10;;;;;;;3.57;69.39;101041.50;105433;1108;78637;-60
2021/04/14 04:25:00;;;;;;;45.60;23.70;;;;;;;3.62;69.49;101041.14;105459;1108;79291;-59
2021/04/14 04:27:07;;;;;;;23.10;10.40;;;;;;;3.64;69.50;101043.66;105430;1108;79743;-60
2021/04/14 04:29:15;;;;;;;16.90;7.70;;;;;;;3.62;69.54;101043.80;105444;1108;78812;-60
2021/04/14 04:31:20;;;;;;;33.50;16.00;;;;;;;3.67;69.57;101052.27;105422;1108;78511;-60
2021/04/14 04:33:25;;;;;;;25.30;12.70;;;;;;;3.68;69.58;101053.95;105452;1108;78122;-60
2021/04/14 04:35:32;;;;;;;21.90;10.30;;;;;;;3.67;69.62;101046.94;105469;1105;76667;-68
2021/04/14 04:37:37;;;;;;;18.50;8.30;;;;;;;3.64;69.75;101055.20;105440;1108;79737;-68
2021/04/14 04:39:42;;;;;;;12.40;7.20;;;;;;;3.67;69.88;101057.63;105450;1108;78395;-59
2021/04/14 04:41:48;;;;;;;12.50;5.20;;;;;;;3.65;70.11;101062.25;105443;1108;79209;-60
2021/04/14 04:43:53;;;;;;;16.90;9.60;;;;;;;3.64;70.32;101065.03;105490;1108;78230;-60
2021/04/14 04:45:58;;;;;;;12.20;6.40;;;;;;;3.58;70.46;101066.39;105446;1108;79650;-60
2021/04/14 04:48:04;;;;;;;17.40;8.00;;;;;;;3.55;70.82;101063.98;105453;1108;78742;-60
2021/04/14 04:50:11;;;;;;;14.10;5.90;;;;;;;3.54;71.20;101059.63;105491;1102;78627;-59
2021/04/14 04:52:16;;;;;;;15.40;7.70;;;;;;;3.48;72.10;101065.48;105463;1108;78148;-60
2021/04/14 04:54:22;;;;;;;14.40;8.80;;;;;;;3.39;71.46;101066.23;105485;1102;76930;-67
2021/04/14 04:56:27;;;;;;;14.70;6.60;;;;;;;3.40;71.62;101066.13;105455;1102;77648;-69
2021/04/14 04:58:35;;;;;;;11.60;4.50;;;;;;;3.42;71.53;101073.99;105446;1108;78701;-67
2021/04/14 05:00:41;;;;;;;8.60;3.20;;;;;;;3.35;71.67;101070.15;105458;1108;78982;-68
2021/04/14 05:02:46;;;;;;;8.80;3.50;;;;;;;3.31;72.47;101071.36;105414;1108;77442;-66
2021/04/14 05:04:53;;;;;;;10.70;3.40;;;;;;;3.27;71.94;101070.75;105458;1108;77807;-60
2021/04/14 05:06:58;;;;;;;8.20;3.70;;;;;;;3.26;72.10;101069.08;105439;1108;78634;-59
2021/04/14 05:09:04;;;;;;;10.60;6.00;;;;;;;3.26;72.09;101076.23;105442;1108;77181;-60
2021/04/14 05:11:09;;;;;;;10.90;6.70;;;;;;;3.27;72.07;101075.27;105425;1108;77540;-60
2021/04/14 05:13:17;;;;;;;14.70;6.50;;;;;;;3.25;72.05;101077.20;105479;1108;79801;-60
2021/04/14 05:15:25;;;;;;;7.70;2.70;;;;;;;3.29;71.91;101078.66;105427;1108;77390;-59
2021/04/14 05:17:30;;;;;;;7.40;2.90;;;;;;;3.24;72.21;101079.02;104746;1110;77034;-60
2021/04/14 05:19:35;;;;;;;7.40;2.90;;;;;;;3.25;72.06;101086.06;104755;1110;77646;-68
2021/04/14 05:21:41;;;;;;;6.20;2.70;;;;;;;3.25;72.43;101078.05;105422;1108;78448;-68
2021/04/14 05:23:46;;;;;;;7.90;4.60;;;;;;;3.31;72.14;101079.38;105477;1108;78727;-68
2021/04/14 05:25:52;;;;;;;4.20;2.60;;;;;;;3.34;72.10;101081.80;105442;1108;77323;-68
2021/04/14 05:28:04;;;;;;;4.40;1.90;;;;;;;3.33;72.58;101080.94;105479;1108;78058;-68
2021/04/14 05:30:12;;;;;;;4.30;2.00;;;;;;;3.30;72.24;101074.99;105480;1108;78529;-68
2021/04/14 05:32:20;;;;;;;5.00;2.00;;;;;;;3.26;72.65;101074.42;105416;1108;77094;-67
2021/04/14 05:34:28;;;;;;;4.10;2.00;;;;;;;3.21;72.89;101070.44;104758;1110;78894;-67
2021/04/14 05:36:37;;;;;;;7.90;3.90;;;;;;;3.22;72.85;101064.95;105478;1108;77925;-67
2021/04/14 05:38:42;;;;;;;8.00;1.80;;;;;;;3.20;73.03;101068.72;105464;1108;78075;-67
2021/04/14 05:40:48;;;;;;;10.90;2.20;;;;;;;3.14;73.25;101069.22;105424;1108;79281;-67
2021/04/14 05:42:53;;;;;;;8.80;3.00;;;;;;;3.17;73.13;101063.63;105434;1108;78389;-67
2021/04/14 05:44:58;;;;;;;8.30;2.40;;;;;;;3.17;73.37;101071.64;105444;1108;78803;-67
2021/04/14 05:47:04;;;;;;;6.70;2.50;;;;;;;3.13;73.70;101067.55;105420;1108;77412;-66
2021/04/14 05:49:09;;;;;;;8.40;1.60;;;;;;;3.10;73.75;101071.31;105438;1108;78534;-66
2021/04/14 05:51:19;;;;;;;6.60;1.60;;;;;;;3.10;73.94;101073.13;105449;1108;78154;-66
2021/04/14 05:53:27;;;;;;;7.20;1.70;;;;;;;3.10;74.03;101073.98;104768;1110;79104;-67
2021/04/14 05:55:36;;;;;;;10.20;1.90;;;;;;;3.17;73.73;101066.30;105515;1101;77565;-67
2021/04/14 05:57:44;;;;;;;4.90;1.80;;;;;;;3.22;74.02;101072.11;105430;1108;78580;-67
2021/04/14 05:59:49;;;;;;;5.60;1.60;;;;;;;3.23;73.70;101079.16;104811;1111;77116;-66
2021/04/14 06:01:55;;;;;;;9.60;1.90;;;;;;;3.21;73.88;101068.62;105494;1108;78146;-67
2021/04/14 06:04:00;;;;;;;6.30;1.30;;;;;;;3.16;74.10;101069.97;105488;1108;79421;-60
2021/04/14 06:06:08;;;;;;;6.30;1.70;;;;;;;3.21;74.07;101067.77;105427;1108;78436;-59
2021/04/14 06:08:16;;;;;;;6.90;2.80;;;;;;;3.24;74.05;101065.66;105426;1108;79052;-59
2021/04/14 06:10:24;;;;;;;7.20;1.70;;;;;;;3.25;74.15;101071.86;105457;1108;77435;-59
2021/04/14 06:12:29;;;;;;;8.80;2.20;;;;;;;3.33;74.20;101064.06;105428;1108;79114;-59
2021/04/14 06:14:37;;;;;;;5.40;1.50;;;;;;;3.41;74.24;101062.45;105419;1108;77253;-68
2021/04/14 06:16:42;;;;;;;8.90;1.70;;;;;;;3.43;74.34;101055.16;105475;1107;78761;-67
2021/04/14 06:18:50;;;;;;;9.30;1.50;;;;;;;3.39;74.24;101064.41;105431;1107;78934;-67
2021/04/14 06:20:55;;;;;;;6.40;2.00;;;;;;;3.39;74.85;101060.89;105425;1108;77201;-67
2021/04/14 06:23:02;;;;;;;9.00;2.40;;;;;;;3.43;75.40;101052.48;105457;1108;77045;-67
2021/04/14 06:25:13;;;;;;;8.90;2.30;;;;;;;3.44;74.74;101056.02;105394;1108;78662;-68
2021/04/14 06:27:29;;;;;;;4.90;1.60;;;;;;;3.43;74.81;101057.01;104750;1111;79394;-67
2021/04/14 06:29:37;;;;;;;7.50;1.90;;;;;;;3.44;75.00;101061.35;105422;1108;79187;-59
2021/04/14 06:31:42;;;;;;;9.60;2.40;;;;;;;3.53;74.99;101055.25;105443;1108;78806;-59
2021/04/14 06:33:49;;;;;;;8.30;1.80;;;;;;;3.55;75.07;101059.48;105413;1108;77458;-60
2021/04/14 06:35:56;;;;;;;7.20;2.20;;;;;;;3.54;74.98;101060.45;105452;1108;77740;-59
2021/04/14 06:38:04;;;;;;;11.30;3.10;;;;;;;3.61;75.23;101049.26;105449;1107;78244;-59
2021/04/14 06:42:47;;;;;;;9.90;2.00;;;;;;;3.66;75.16;101055.06;105035;1108;79475;-67
2021/04/14 06:45:18;;;;;;;5.80;2.70;;;;;;;3.69;75.39;101050.31;105484;1108;79581;-67
2021/04/14 06:47:50;;;;;;;7.90;2.00;;;;;;;3.71;75.30;101056.37;105447;1108;76941;-67
2021/04/14 06:50:05;;;;;;;8.30;2.10;;;;;;;3.79;75.50;101051.22;104830;1111;78197;-67
2021/04/14 06:52:19;;;;;;;6.70;2.10;;;;;;;3.93;75.70;101061.59;105477;1108;79814;-67
2021/04/14 06:54:44;;;;;;;8.80;2.50;;;;;;;3.95;75.57;101048.97;105441;1108;78327;-68
2021/04/14 06:57:00;;;;;;;7.60;1.90;;;;;;;4.03;75.50;101046.48;105487;1101;76785;-67
2021/04/14 06:59:13;;;;;;;6.00;2.00;;;;;;;4.07;75.55;101045.22;105467;1108;78732;-67
2021/04/14 07:01:42;;;;;;;8.50;2.80;;;;;;;4.08;75.71;101036.23;104848;1105;77065;-68
2021/04/14 07:04:03;;;;;;;9.00;2.20;;;;;;;4.17;75.73;101045.30;104794;1110;77968;-68
2021/04/14 07:06:13;;;;;;;9.20;2.20;;;;;;;4.25;75.32;101048.14;105335;1108;77626;-68
2021/04/14 07:08:23;;;;;;;8.50;2.20;;;;;;;4.37;75.46;101052.41;104781;1110;77410;-68
2021/04/14 07:10:32;;;;;;;8.50;2.80;;;;;;;4.38;75.35;101047.91;104790;1110;78723;-59
2021/04/14 07:12:40;;;;;;;6.70;2.30;;;;;;;4.28;75.51;101047.03;104783;1110;78341;-60
2021/04/14 07:14:47;;;;;;;7.70;3.10;;;;;;;4.24;75.60;101064.30;104778;1110;78500;-59
2021/04/14 07:17:13;;;;;;;8.30;3.30;;;;;;;4.24;75.57;101050.94;104779;1110;79147;-60
2021/04/14 07:19:31;;;;;;;7.90;2.80;;;;;;;4.30;75.58;101061.11;104803;1110;78597;-67
2021/04/14 07:21:43;;;;;;;6.40;2.90;;;;;;;4.21;75.71;101054.73;104754;1110;78679;-68
2021/04/14 07:23:54;;;;;;;8.70;2.90;;;;;;;4.20;75.40;101052.20;104820;1110;77558;-67
2021/04/14 07:26:06;;;;;;;7.90;2.40;;;;;;;4.13;75.63;101059.89;104836;1103;77753;-67
2021/04/14 07:28:31;;;;;;;5.80;2.00;;;;;;;4.13;75.50;101057.22;104814;1111;78533;-66
2021/04/14 07:30:47;;;;;;;7.70;3.20;;;;;;;4.00;75.63;101059.25;104800;1110;78012;-58
2021/04/14 07:33:05;;;;;;;6.40;2.90;;;;;;;3.92;75.76;101067.08;104832;1110;78301;-58
2021/04/14 07:35:19;;;;;;;7.10;2.30;;;;;;;3.83;75.87;101058.02;104782;1110;77581;-68
2021/04/14 07:37:38;;;;;;;9.40;3.20;;;;;;;3.84;75.98;101058.87;104752;1110;78789;-67
2021/04/14 07:39:50;;;;;;;6.30;2.30;;;;;;;3.79;75.79;101061.09;104806;1110;78596;-58
2021/04/14 07:42:12;;;;;;;4.80;2.00;;;;;;;3.75;76.20;101060.49;104768;1110;77184;-58
2021/04/14 07:44:32;;;;;;;5.70;2.00;;;;;;;3.69;76.00;101058.33;104769;1110;78667;-69
2021/04/14 07:46:35;;;;;;;6.60;2.40;;;;;;;3.62;75.92;101054.49;104783;1110;78278;-56
2021/04/14 07:48:39;;;;;;;;;;;;;;;3.56;76.33;101061.20;105327;1108;77976;-56
2021/04/14 07:50:53;;;;;;;4.90;2.00;;;;;;;3.49;76.35;101056.47;105433;1107;77641;-58
2021/04/14 07:53:01;;;;;;;4.90;1.90;;;;;;;3.45;76.62;101063.91;105445;1108;77566;-57
2021/04/14 07:55:30;;;;;;;6.20;2.40;;;;;;;3.43;76.94;101059.67;105436;1107;78238;-57
2021/04/14 07:57:39;;;;;;;6.40;2.20;;;;;;;3.45;76.71;101053.23;104822;1102;78373;-57
2021/04/14 07:59:45;;;;;;;7.20;2.10;;;;;;;3.48;77.14;101052.13;104745;1110;76724;-56
2021/04/14 08:01:58;;;;;;;8.80;2.70;;;;;;;3.48;77.05;101054.80;104852;1102;78754;-68
2021/04/14 08:04:18;;;;;;;4.30;1.30;;;;;;;3.44;77.04;101056.02;104786;1110;78272;-68
2021/04/14 08:06:29;;;;;;;3.10;1.60;;;;;;;3.42;77.61;101052.63;104795;1111;78419;-55
2021/04/14 08:08:35;;;;;;;4.80;1.70;;;;;;;3.44;77.20;101056.86;104765;1110;78149;-56
2021/04/14 08:10:55;;;;;;;5.80;1.90;;;;;;;3.50;77.36;101048.34;104723;1110;78623;-56
2021/04/14 08:13:07;;;;;;;5.50;2.20;;;;;;;3.56;77.49;101052.33;104810;1110;78913;-70
2021/04/14 08:15:18;;;;;;;6.20;2.00;;;;;;;3.60;77.55;101051.08;104757;1110;77196;-68
2021/04/14 08:17:29;;;;;;;9.00;2.00;;;;;;;3.58;77.88;101047.70;104891;1101;78543;-67
2021/04/14 08:19:37;;;;;;;5.90;3.20;;;;;;;3.63;77.79;101050.83;104813;1111;78141;-66
2021/04/14 08:21:57;;;;;;;6.10;1.90;;;;;;;3.56;77.66;101044.31;104742;1110;78082;-56
2021/04/14 08:24:11;;;;;;;7.20;2.20;;;;;;;3.68;77.23;101040.59;104826;1110;78343;-55
2021/04/14 08:26:21;;;;;;;6.90;2.30;;;;;;;3.63;77.52;101055.31;104766;1110;79133;-56
2021/04/14 08:28:33;;;;;;;3.30;2.00;;;;;;;3.70;77.50;101048.50;105393;1108;77416;-57
2021/04/14 08:30:41;;;;;;;3.70;1.70;;;;;;;3.70;77.50;101046.67;105443;1108;76995;-57
2021/04/14 08:33:04;;;;;;;4.00;2.10;;;;;;;3.63;77.29;101049.97;105446;1108;77851;-67
2021/04/14 08:35:26;;;;;;;4.60;2.20;;;;;;;3.66;77.27;101053.23;105363;1107;77009;-65
2021/04/14 08:37:33;;;;;;;4.70;1.50;;;;;;;3.65;77.64;101043.55;104730;1110;78789;-57
2021/04/14 08:39:50;;;;;;;5.70;1.90;;;;;;;3.67;77.37;101048.75;104789;1110;77926;-58
2021/04/14 08:42:26;;;;;;;5.20;1.90;;;;;;;3.67;77.74;101048.75;104773;1110;76747;-62
2021/04/14 08:44:38;;;;;;;5.50;2.00;;;;;;;3.58;77.38;101048.55;104926;1108;78624;-62
2021/04/14 08:46:45;;;;;;;9.60;3.00;;;;;;;3.50;77.19;101048.34;105114;1108;78565;-59
2021/04/14 08:48:54;;;;;;;4.10;2.70;;;;;;;3.43;77.08;101060.50;104838;1110;78442;-59
2021/04/14 08:51:04;;;;;;;5.20;2.70;;;;;;;3.27;77.42;101060.08;104770;1110;78123;-58
2021/04/14 08:53:19;;;;;;;6.50;3.50;;;;;;;3.25;77.46;101059.36;104790;1111;79786;-63
2021/04/14 08:55:27;;;;;;;4.90;2.50;;;;;;;3.31;77.63;101068.69;104829;1110;78873;-63
2021/04/14 08:57:33;;;;;;;4.00;2.60;;;;;;;3.35;77.97;101054.13;104792;1110;77792;-58
2021/04/14 08:59:40;;;;;;;5.50;2.30;;;;;;;3.42;78.39;101052.63;104880;1101;78121;-59
2021/04/14 09:01:46;;;;;;;5.40;2.80;;;;;;;3.46;77.96;101048.74;104743;1110;77282;-61
2021/04/14 09:03:54;;;;;;;7.20;2.50;;;;;;;3.59;77.76;101041.39;104741;1110;79345;-60
2021/04/14 09:06:00;;;;;;;4.50;2.60;;;;;;;3.68;77.78;101034.42;104735;1110;77553;-61
2021/04/14 09:08:13;;;;;;;5.50;2.20;;;;;;;3.71;77.75;101034.17;104801;1110;78219;-58
2021/04/14 09:10:40;;;;;;;5.40;3.10;;;;;;;3.83;77.79;101036.64;104791;1110;78762;-59
2021/04/14 09:12:51;;;;;;;6.30;2.70;;;;;;;3.84;77.72;101022.31;104748;1110;77931;-60
2021/04/14 09:15:04;;;;;;;6.40;3.20;;;;;;;3.98;77.51;101027.29;104767;1110;78265;-60
2021/04/14 09:17:20;;;;;;;5.80;2.90;;;;;;;4.06;77.46;101022.16;104766;1110;78380;-60
2021/04/14 09:19:38;;;;;;;7.20;3.00;;;;;;;4.10;77.28;101028.92;104772;1110;79218;-60
2021/04/14 09:21:50;;;;;;;4.50;2.60;;;;;;;4.10;77.44;101017.38;104746;1110;78607;-60
2021/04/14 09:24:00;;;;;;;4.90;2.50;;;;;;;4.05;77.63;101024.95;104810;1110;79448;-60
2021/04/14 09:26:22;;;;;;;5.80;2.80;;;;;;;3.92;77.74;101024.31;104729;1110;77400;-60
2021/04/14 09:28:31;;;;;;;6.40;3.00;;;;;;;3.97;77.59;101028.29;104785;1110;77290;-60
2021/04/14 09:30:54;;;;;;;4.70;2.40;;;;;;;3.94;77.46;101020.53;104758;1110;78056;-60
2021/04/14 09:33:20;;;;;;;5.10;2.60;;;;;;;4.02;77.63;101030.55;104906;1103;78550;-60
2021/04/14 09:36:01;;;;;;;3.60;1.80;;;;;;;3.97;77.42;101020.27;104796;1110;79183;-59
2021/04/14 09:38:14;;;;;;;3.10;2.40;;;;;;;4.00;77.26;101011.14;104731;1110;79424;-61
2021/04/14 09:40:33;;;;;;;3.60;2.10;;;;;;;4.00;77.90;101011.99;104791;1110;76808;-61
2021/04/14 09:42:41;;;;;;;4.80;3.10;;;;;;;4.03;77.71;101017.08;104779;1110;77823;-62
2021/04/14 09:44:48;;;;;;;4.40;2.60;;;;;;;3.93;77.64;101013.48;104755;1110;78685;-62
2021/04/14 09:47:09;;;;;;;7.20;3.40;;;;;;;3.94;77.64;101015.19;104758;1110;78569;-59
2021/04/14 09:49:18;;;;;;;6.00;2.60;;;;;;;3.93;77.57;101013.48;104751;1108;78495;-60
2021/04/14 09:51:36;;;;;;;4.40;1.80;;;;;;;3.89;77.49;101008.54;104746;1110;78923;-59
2021/04/14 09:53:44;;;;;;;3.60;2.30;;;;;;;3.84;77.60;101008.09;104764;1110;77238;-59
2021/04/14 09:55:58;;;;;;;4.80;2.40;;;;;;;3.89;77.48;101012.06;104842;1100;77933;-59
2021/04/14 09:58:12;;;;;;;7.80;3.10;;;;;;;3.95;77.84;101013.37;104714;1110;77421;-63
2021/04/14 10:00:19;;;;;;;;;;;;;;;3.95;77.84;101008.02;104883;1103;78009;-64